createdAt,value
2019-05-11T00:02:14.397Z,1.92
2019-05-11T00:04:46.690Z,4.12
2019-05-11T00:07:19.060Z,4.17
2019-05-11T00:09:58.140Z,5.28
2019-05-11T00:12:25.348Z,3.55
2019-05-11T00:14:57.722Z,3.27
2019-05-11T00:17:29.992Z,6.20
2019-05-11T00:20:02.905Z,4.60
2019-05-11T00:22:35.445Z,4.25
2019-05-11T00:25:08.127Z,2.65
2019-05-11T00:27:40.501Z,3.33
2019-05-11T00:30:12.774Z,4.95
2019-05-11T00:32:44.963Z,4.30
2019-05-11T00:35:17.439Z,3.58
2019-05-11T00:37:49.902Z,3.77
2019-05-11T00:40:22.293Z,3.05
2019-05-11T00:42:54.545Z,3.02
2019-05-11T00:45:26.837Z,5.33
2019-05-11T00:47:59.193Z,2.83
2019-05-11T00:50:39.245Z,7.35
2019-05-11T00:53:05.428Z,2.85
2019-05-11T00:55:37.708Z,3.33
2019-05-11T00:58:09.907Z,4.05
2019-05-11T01:00:41.967Z,7.05
2019-05-11T01:03:14.023Z,3.95
2019-05-11T01:05:47.039Z,4.42
2019-05-11T01:08:19.202Z,4.25
2019-05-11T01:10:51.327Z,2.75
2019-05-11T01:13:23.448Z,4.25
2019-05-11T01:15:55.615Z,2.37
2019-05-11T01:18:27.721Z,2.00
2019-05-11T01:20:59.789Z,2.08
2019-05-11T01:23:31.940Z,2.08
2019-05-11T01:26:04.041Z,2.40
2019-05-11T01:28:36.107Z,1.75
2019-05-11T01:31:08.172Z,1.95
2019-05-11T01:33:40.291Z,3.42
2019-05-11T01:36:12.363Z,3.40
2019-05-11T01:38:44.475Z,2.12
2019-05-11T01:41:16.711Z,3.05
2019-05-11T01:43:48.832Z,4.53
2019-05-11T01:46:21.074Z,2.25
2019-05-11T01:48:53.443Z,3.17
2019-05-11T01:51:25.818Z,3.42
2019-05-11T01:53:58.090Z,3.15
2019-05-11T01:56:30.567Z,3.33
2019-05-11T01:59:03.031Z,4.75
2019-05-11T02:01:35.302Z,2.55
2019-05-11T02:04:07.578Z,3.20
2019-05-11T02:06:39.862Z,1.55
2019-05-11T02:09:12.341Z,3.62
2019-05-11T02:11:44.860Z,1.47
2019-05-11T02:14:17.178Z,2.62
2019-05-11T02:16:50.589Z,2.12
2019-05-11T02:19:22.864Z,3.62
2019-05-11T02:21:55.122Z,4.28
2019-05-11T02:24:27.492Z,8.70
2019-05-11T02:26:59.991Z,2.67
2019-05-11T02:29:32.363Z,3.45
2019-05-11T02:32:04.639Z,3.15
2019-05-11T02:34:36.922Z,2.30
2019-05-11T02:37:09.373Z,7.12
2019-05-11T02:39:41.850Z,5.30
2019-05-11T02:42:14.240Z,3.80
2019-05-11T02:44:46.501Z,3.45
2019-05-11T02:47:18.888Z,2.47
2019-05-11T02:49:51.172Z,6.65
2019-05-11T02:52:23.219Z,7.62
2019-05-11T02:54:55.491Z,1.80
2019-05-11T02:57:27.497Z,2.87
2019-05-11T02:59:59.624Z,3.70
2019-05-11T03:02:31.999Z,2.37
2019-05-11T03:05:07.543Z,3.77
2019-05-11T03:07:39.728Z,2.90
2019-05-11T03:10:12.106Z,3.15
2019-05-11T03:12:44.196Z,1.87
2019-05-11T03:15:16.268Z,2.65
2019-05-11T03:17:48.341Z,1.98
2019-05-11T03:20:20.465Z,3.47
2019-05-11T03:22:52.641Z,3.30
2019-05-11T03:25:24.653Z,2.35
2019-05-11T03:27:56.971Z,3.25
2019-05-11T03:30:29.133Z,3.35
2019-05-11T03:33:01.297Z,3.42
2019-05-11T03:35:33.386Z,1.65
2019-05-11T03:38:05.805Z,2.42
2019-05-11T03:40:38.043Z,1.35
2019-05-11T03:43:10.522Z,1.45
2019-05-11T03:45:42.897Z,1.45
2019-05-11T03:48:15.167Z,1.98
2019-05-11T03:50:47.442Z,2.75
2019-05-11T03:53:19.924Z,2.35
2019-05-11T03:55:52.278Z,1.70
2019-05-11T03:58:26.282Z,2.15
2019-05-11T04:00:58.566Z,2.00
2019-05-11T04:03:31.060Z,2.20
2019-05-11T04:06:03.340Z,3.77
2019-05-11T04:08:35.786Z,2.27
2019-05-11T04:11:08.227Z,1.77
2019-05-11T04:13:40.249Z,3.27
2019-05-11T04:16:12.397Z,2.25
2019-05-11T04:18:44.566Z,1.42
2019-05-11T04:21:17.888Z,1.37
2019-05-11T04:23:50.364Z,2.42
2019-05-11T04:26:22.532Z,2.15
2019-05-11T04:28:54.987Z,2.15
2019-05-11T04:31:27.321Z,2.35
2019-05-11T04:33:59.763Z,1.67
2019-05-11T04:36:32.218Z,2.35
2019-05-11T04:39:06.264Z,3.05
2019-05-11T04:41:38.421Z,2.37
2019-05-11T04:44:10.791Z,3.15
2019-05-11T04:46:43.064Z,3.45
2019-05-11T04:49:15.322Z,2.47
2019-05-11T04:51:47.714Z,2.65
2019-05-11T04:54:20.175Z,2.33
2019-05-11T04:56:52.246Z,2.17
2019-05-11T04:59:24.533Z,2.58
2019-05-11T05:01:56.665Z,1.07
2019-05-11T05:04:29.154Z,2.87
2019-05-11T05:07:05.394Z,2.08
2019-05-11T05:09:35.972Z,1.22
2019-05-11T05:12:14.220Z,0.88
2019-05-11T05:14:42.552Z,1.17
2019-05-11T05:17:14.844Z,1.15
2019-05-11T05:19:47.170Z,0.85
2019-05-11T05:22:20.397Z,3.98
2019-05-11T05:24:52.608Z,1.57
2019-05-11T05:27:24.940Z,2.95
2019-05-11T05:29:57.273Z,1.57
2019-05-11T05:32:29.591Z,5.03
2019-05-11T05:35:01.983Z,1.60
2019-05-11T05:37:34.250Z,1.82
2019-05-11T05:40:06.420Z,1.80
2019-05-11T05:42:38.668Z,1.65
2019-05-11T05:45:10.968Z,2.02
2019-05-11T05:47:43.327Z,1.47
2019-05-11T05:50:15.800Z,1.50
2019-05-11T05:52:48.069Z,2.55
2019-05-11T05:55:21.897Z,2.25
2019-05-11T05:57:54.173Z,1.32
2019-05-11T06:00:26.430Z,2.30
2019-05-11T06:02:59.036Z,2.72
2019-05-11T06:05:31.280Z,3.47
2019-05-11T06:08:03.810Z,2.25
2019-05-11T06:10:35.927Z,6.33
2019-05-11T06:13:08.322Z,2.47
2019-05-11T06:15:40.795Z,2.00
2019-05-11T06:18:12.872Z,1.30
2019-05-11T06:20:46.058Z,2.20
2019-05-11T06:23:19.047Z,1.25
2019-05-11T06:25:51.214Z,1.20
2019-05-11T06:28:23.486Z,0.88
2019-05-11T06:30:55.974Z,2.30
2019-05-11T06:33:28.338Z,0.62
2019-05-11T06:36:00.411Z,0.40
2019-05-11T06:38:32.740Z,0.50
2019-05-11T06:41:04.852Z,0.55
2019-05-11T06:43:37.036Z,1.85
2019-05-11T06:46:09.165Z,0.47
2019-05-11T06:48:41.281Z,0.85
2019-05-11T06:51:13.830Z,0.50
2019-05-11T06:53:46.301Z,0.50
2019-05-11T06:56:18.379Z,0.60
2019-05-11T06:58:50.553Z,0.50
2019-05-11T07:01:22.938Z,0.28
2019-05-11T07:03:55.060Z,0.30
2019-05-11T07:06:30.541Z,0.82
2019-05-11T07:09:02.193Z,0.35
2019-05-11T07:11:34.664Z,0.30
2019-05-11T07:14:20.061Z,0.65
2019-05-11T07:16:41.165Z,0.83
2019-05-11T07:19:13.324Z,0.50
2019-05-11T07:21:45.824Z,0.68
2019-05-11T07:24:17.884Z,0.53
2019-05-11T07:26:49.958Z,3.33
2019-05-11T07:29:22.080Z,0.90
2019-05-11T07:31:54.361Z,0.45
2019-05-11T07:34:27.811Z,0.30
2019-05-11T07:37:01.025Z,0.25
2019-05-11T07:39:33.297Z,0.45
2019-05-11T07:42:07.645Z,0.30
2019-05-11T07:44:41.903Z,0.20
2019-05-11T07:47:13.559Z,1.27
2019-05-11T07:49:48.847Z,0.85
2019-05-11T07:52:20.670Z,0.50
2019-05-11T07:54:53.142Z,0.25
2019-05-11T07:57:28.451Z,0.23
2019-05-11T08:00:00.223Z,0.28
2019-05-11T08:02:32.536Z,0.68
2019-05-11T08:05:05.741Z,0.30
2019-05-11T08:07:38.365Z,0.80
2019-05-11T08:10:10.865Z,0.65
2019-05-11T08:12:43.022Z,2.15
2019-05-11T08:15:15.251Z,0.40
2019-05-11T08:17:48.792Z,1.22
2019-05-11T08:20:23.272Z,1.10
2019-05-11T08:22:55.708Z,0.88
2019-05-11T08:25:28.684Z,1.57
2019-05-11T08:28:00.971Z,1.02
2019-05-11T08:30:33.252Z,0.53
2019-05-11T08:33:05.415Z,0.57
2019-05-11T08:35:38.942Z,0.62
2019-05-11T08:38:11.297Z,0.68
2019-05-11T08:40:43.747Z,1.17
2019-05-11T08:43:17.877Z,0.70
2019-05-11T08:45:49.756Z,0.50
2019-05-11T08:48:21.896Z,0.57
2019-05-11T08:50:54.192Z,0.55
2019-05-11T08:53:28.405Z,0.80
2019-05-11T08:56:00.244Z,0.80
2019-05-11T08:58:32.652Z,0.72
2019-05-11T09:01:05.015Z,0.70
2019-05-11T09:03:38.714Z,0.80
2019-05-11T09:06:10.948Z,0.30
2019-05-11T09:08:43.375Z,2.22
2019-05-11T09:11:15.727Z,1.40
2019-05-11T09:13:48.815Z,1.55
2019-05-11T09:16:21.173Z,0.68
2019-05-11T09:18:53.546Z,1.57
2019-05-11T09:21:27.993Z,1.17
2019-05-11T09:24:00.605Z,0.82
2019-05-11T09:26:32.748Z,0.98
2019-05-11T09:29:04.858Z,0.55
2019-05-11T09:31:38.164Z,0.68
2019-05-11T09:34:10.578Z,0.75
2019-05-11T09:36:42.973Z,0.90
2019-05-11T09:39:17.590Z,1.05
2019-05-11T09:41:49.052Z,1.07
2019-05-11T09:44:21.267Z,0.47
2019-05-11T09:46:53.496Z,0.88
2019-05-11T09:49:42.760Z,0.55
2019-05-11T09:51:59.769Z,0.70
2019-05-11T09:54:32.017Z,1.52
2019-05-11T09:57:04.271Z,0.93
2019-05-11T09:59:38.509Z,1.80
2019-05-11T10:02:10.146Z,1.27
2019-05-11T10:04:42.237Z,0.82
2019-05-11T10:07:14.262Z,0.88
2019-05-11T10:09:47.903Z,2.15
2019-05-11T10:12:20.213Z,1.95
2019-05-11T10:14:52.587Z,1.27
2019-05-11T10:17:24.969Z,2.37
2019-05-11T10:19:58.179Z,1.52
2019-05-11T10:22:30.824Z,1.35
2019-05-11T10:25:03.523Z,1.87
2019-05-11T10:27:38.145Z,2.02
2019-05-11T10:30:09.687Z,1.32
2019-05-11T10:32:42.782Z,1.42
2019-05-11T10:35:15.277Z,2.00
2019-05-11T10:37:47.944Z,1.67
2019-05-11T10:40:20.520Z,2.45
2019-05-11T10:42:52.809Z,1.52
2019-05-11T10:45:25.266Z,2.02
2019-05-11T10:48:00.947Z,2.08
2019-05-11T10:50:32.081Z,2.13
2019-05-11T10:53:04.540Z,5.03
2019-05-11T10:55:38.700Z,1.57
2019-05-11T10:58:10.929Z,2.47
2019-05-11T11:00:43.423Z,2.25
2019-05-11T11:03:17.882Z,1.25
2019-05-11T11:05:49.691Z,1.25
2019-05-11T11:08:22.066Z,1.65
2019-05-11T11:10:54.558Z,3.22
2019-05-11T11:13:28.095Z,4.40
2019-05-11T11:16:02.100Z,2.00
2019-05-11T11:18:34.329Z,1.98
2019-05-11T11:21:08.721Z,2.83
2019-05-11T11:23:40.529Z,4.10
2019-05-11T11:26:12.786Z,1.10
2019-05-11T11:28:45.073Z,2.45
2019-05-11T11:31:18.927Z,3.08
2019-05-11T11:33:51.153Z,2.05
2019-05-11T11:36:23.529Z,1.35
2019-05-11T11:38:58.190Z,2.30
2019-05-11T11:41:30.069Z,2.45
2019-05-11T11:44:02.275Z,2.08
2019-05-11T11:46:48.562Z,3.60
2019-05-11T11:49:08.472Z,2.37
2019-05-11T11:51:40.853Z,2.75
2019-05-11T11:54:13.126Z,3.58
2019-05-11T11:56:45.396Z,2.62
2019-05-11T11:59:17.980Z,3.02
2019-05-11T12:01:50.246Z,3.52
2019-05-11T12:04:22.519Z,2.15
2019-05-11T12:06:54.983Z,2.20
2019-05-11T12:09:28.637Z,3.42
2019-05-11T12:12:01.076Z,3.12
2019-05-11T12:14:33.335Z,3.02
2019-05-11T12:17:08.683Z,2.47
2019-05-11T12:19:39.632Z,3.80
2019-05-11T12:22:12.097Z,3.00
2019-05-11T12:24:44.282Z,2.83
2019-05-11T12:27:18.262Z,3.33
2019-05-11T12:29:50.565Z,2.45
2019-05-11T12:32:24.567Z,4.62
2019-05-11T12:34:58.791Z,3.95
2019-05-11T12:37:31.170Z,2.47
2019-05-11T12:40:03.954Z,3.20
2019-05-11T12:42:38.087Z,2.50
2019-05-11T12:45:11.160Z,4.28
2019-05-11T12:47:43.637Z,2.77
2019-05-11T12:50:18.420Z,4.47
2019-05-11T12:52:51.135Z,2.35
2019-05-11T12:55:23.625Z,2.92
2019-05-11T12:57:57.985Z,2.67
2019-05-11T13:00:31.431Z,2.35
2019-05-11T13:03:08.068Z,2.17
2019-05-11T13:05:41.222Z,1.32
2019-05-11T13:08:13.499Z,4.47
2019-05-11T13:10:47.777Z,1.55
2019-05-11T13:13:20.571Z,2.83
2019-05-11T13:15:52.864Z,2.30
2019-05-11T13:18:25.120Z,1.98
2019-05-11T13:20:58.805Z,2.75
2019-05-11T13:23:31.092Z,2.35
2019-05-11T13:26:03.571Z,3.60
2019-05-11T13:28:37.800Z,1.85
2019-05-11T13:31:10.690Z,2.90
2019-05-11T13:33:43.226Z,3.50
2019-05-11T13:36:15.553Z,1.87
2019-05-11T13:38:48.557Z,2.50
2019-05-11T13:41:20.789Z,3.42
2019-05-11T13:43:53.164Z,1.77
2019-05-11T13:46:25.454Z,2.20
2019-05-11T13:48:58.043Z,2.62
2019-05-11T13:51:30.202Z,3.22
2019-05-11T13:54:02.676Z,1.50
2019-05-11T13:56:35.054Z,2.87
2019-05-11T13:59:10.642Z,3.20
2019-05-11T14:01:42.363Z,2.47
2019-05-11T14:04:14.619Z,3.87
2019-05-11T14:06:48.162Z,2.67
2019-05-11T14:09:20.512Z,4.97
2019-05-11T14:11:52.766Z,3.47
2019-05-11T14:14:25.259Z,3.45
2019-05-11T14:16:58.836Z,3.40
2019-05-11T14:19:31.244Z,3.12
2019-05-11T14:22:03.616Z,4.05
2019-05-11T14:24:37.626Z,3.55
2019-05-11T14:27:09.886Z,3.90
2019-05-11T14:29:42.376Z,2.65
2019-05-11T14:32:14.749Z,7.65
2019-05-11T14:34:48.467Z,4.83
2019-05-11T14:37:20.736Z,2.65
2019-05-11T14:39:53.104Z,2.92
2019-05-11T14:42:25.564Z,5.42
2019-05-11T14:44:58.934Z,2.70
2019-05-11T14:47:31.356Z,2.70
2019-05-11T14:50:04.641Z,3.30
2019-05-11T14:52:38.873Z,4.53
2019-05-11T14:55:10.918Z,2.75
2019-05-11T14:57:43.209Z,2.08
2019-05-11T15:00:18.327Z,2.00
2019-05-11T15:02:50.197Z,2.53
2019-05-11T15:05:22.484Z,2.65
2019-05-11T15:07:54.853Z,1.95
2019-05-11T15:10:27.872Z,2.58
2019-05-11T15:13:00.206Z,2.45
2019-05-11T15:15:32.696Z,2.15
2019-05-11T15:18:05.176Z,3.75
2019-05-11T15:20:38.727Z,2.58
2019-05-11T15:23:11.053Z,1.75
2019-05-11T15:25:43.334Z,3.17
2019-05-11T15:28:17.960Z,2.90
2019-05-11T15:30:49.605Z,1.12
2019-05-11T15:33:22.085Z,1.65
2019-05-11T15:35:54.458Z,3.22
2019-05-11T15:38:28.425Z,2.77
2019-05-11T15:41:00.745Z,5.28
2019-05-11T15:43:33.223Z,1.00
2019-05-11T15:46:05.596Z,2.85
2019-05-11T15:48:53.494Z,1.42
2019-05-11T15:51:11.881Z,2.02
2019-05-11T15:53:44.155Z,3.17
2019-05-11T15:56:18.776Z,1.37
2019-05-11T15:58:50.236Z,2.12
2019-05-11T16:01:22.594Z,1.65
2019-05-11T16:03:54.965Z,1.42
2019-05-11T16:06:28.435Z,3.17
2019-05-11T16:09:01.690Z,1.60
2019-05-11T16:11:35.076Z,2.02
2019-05-11T16:14:08.782Z,1.42
2019-05-11T16:16:41.159Z,4.15
2019-05-11T16:19:15.140Z,2.05
2019-05-11T16:21:47.544Z,2.42
2019-05-11T16:24:20.028Z,1.62
2019-05-11T16:26:52.381Z,2.47
2019-05-11T16:29:24.755Z,2.67
2019-05-11T16:31:57.909Z,2.52
2019-05-11T16:34:30.121Z,1.92
2019-05-11T16:37:05.265Z,1.75
2019-05-11T16:39:38.492Z,2.80
2019-05-11T16:42:10.229Z,1.75
2019-05-11T16:44:42.487Z,2.35
2019-05-11T16:47:14.877Z,2.22
2019-05-11T16:49:47.249Z,4.47
2019-05-11T16:52:19.625Z,3.37
2019-05-11T16:54:52.924Z,2.70
2019-05-11T16:57:25.504Z,2.95
2019-05-11T16:59:58.495Z,2.50
2019-05-11T17:02:30.747Z,1.80
2019-05-11T17:05:03.134Z,3.25
2019-05-11T17:07:37.250Z,2.47
2019-05-11T17:10:10.136Z,4.70
2019-05-11T17:12:42.520Z,2.52
2019-05-11T17:15:14.774Z,2.87
2019-05-11T17:17:48.601Z,3.08
2019-05-11T17:20:21.173Z,2.70
2019-05-11T17:22:54.100Z,2.45
2019-05-11T17:25:28.659Z,2.85
2019-05-11T17:28:00.128Z,1.65
2019-05-11T17:30:33.438Z,3.95
2019-05-11T17:33:08.213Z,6.08
2019-05-11T17:35:39.720Z,3.40
2019-05-11T17:38:12.200Z,2.92
2019-05-11T17:40:44.470Z,3.10
2019-05-11T17:43:18.094Z,2.35
2019-05-11T17:45:50.447Z,2.52
2019-05-11T17:48:22.926Z,3.00
2019-05-11T17:50:55.404Z,3.50
2019-05-11T17:53:28.643Z,3.02
2019-05-11T17:56:00.971Z,6.33
2019-05-11T17:58:33.448Z,1.95
2019-05-11T18:01:05.826Z,2.35
2019-05-11T18:03:38.535Z,1.40
2019-05-11T18:06:10.784Z,1.07
2019-05-11T18:08:43.140Z,1.82
2019-05-11T18:11:15.436Z,1.10
2019-05-11T18:13:48.322Z,1.62
2019-05-11T18:16:20.585Z,2.02
2019-05-11T18:18:54.501Z,3.75
2019-05-11T18:21:28.089Z,1.92
2019-05-11T18:24:00.268Z,1.92
2019-05-11T18:26:32.747Z,1.90
2019-05-11T18:29:05.222Z,1.90
2019-05-11T18:31:38.435Z,1.60
2019-05-11T18:34:10.790Z,2.67
2019-05-11T18:36:44.094Z,3.50
2019-05-11T18:39:18.464Z,2.20
2019-05-11T18:41:50.375Z,2.25
2019-05-11T18:44:22.753Z,3.00
2019-05-11T18:46:59.114Z,3.30
2019-05-11T18:49:30.346Z,2.98
2019-05-11T18:52:08.074Z,3.75
2019-05-11T18:54:39.922Z,2.77
2019-05-11T18:57:14.449Z,2.67
2019-05-11T18:59:48.427Z,3.75
2019-05-11T19:02:20.629Z,2.00
2019-05-11T19:04:53.108Z,5.15
2019-05-11T19:07:28.126Z,2.15
2019-05-11T19:09:59.700Z,2.65
2019-05-11T19:12:34.734Z,2.95
2019-05-11T19:15:09.670Z,2.33
2019-05-11T19:17:42.231Z,3.35
2019-05-11T19:20:14.507Z,2.87
2019-05-11T19:22:46.981Z,2.72
2019-05-11T19:25:19.269Z,5.47
2019-05-11T19:27:51.527Z,20.37
2019-05-11T19:30:24.121Z,4.62
2019-05-11T19:32:58.876Z,5.42
2019-05-11T19:35:30.391Z,14.73
2019-05-11T19:38:04.817Z,15.55
2019-05-11T19:40:38.267Z,9.15
2019-05-11T19:43:12.254Z,10.43
2019-05-11T19:45:44.702Z,10.00
2019-05-11T19:48:17.077Z,6.87
2019-05-11T19:51:03.757Z,13.53
2019-05-11T19:53:23.564Z,5.35
2019-05-11T19:55:58.438Z,5.60
2019-05-11T19:58:30.791Z,4.53
2019-05-11T20:01:03.054Z,4.55
2019-05-11T20:03:37.693Z,3.47
2019-05-11T20:06:09.138Z,4.78
2019-05-11T20:08:41.596Z,7.53
2019-05-11T20:11:13.992Z,5.65
2019-05-11T20:13:48.242Z,3.20
2019-05-11T20:16:20.175Z,7.00
2019-05-11T20:18:52.549Z,4.67
2019-05-11T20:21:24.928Z,3.42
2019-05-11T20:23:57.787Z,4.25
2019-05-11T20:26:30.068Z,6.17
2019-05-11T20:29:02.460Z,4.70
2019-05-11T20:31:34.730Z,4.75
2019-05-11T20:34:07.004Z,3.62
2019-05-11T20:36:39.480Z,3.83
2019-05-11T20:39:12.878Z,4.10
2019-05-11T20:41:47.618Z,3.58
2019-05-11T20:44:19.366Z,4.62
2019-05-11T20:46:51.643Z,2.90
2019-05-11T20:49:23.893Z,2.95
2019-05-11T20:51:58.138Z,3.17
2019-05-11T20:54:30.406Z,4.08
2019-05-11T20:57:02.671Z,3.47
2019-05-11T20:59:34.934Z,5.10
2019-05-11T21:02:09.339Z,3.27
2019-05-11T21:04:41.314Z,6.25
2019-05-11T21:07:13.607Z,3.95
2019-05-11T21:09:48.251Z,7.80
2019-05-11T21:12:19.999Z,3.15
2019-05-11T21:14:52.254Z,2.33
2019-05-11T21:17:24.539Z,4.55
2019-05-11T21:19:56.814Z,5.12
2019-05-11T21:22:29.289Z,2.77
2019-05-11T21:25:01.768Z,3.90
2019-05-11T21:27:34.127Z,2.22
2019-05-11T21:30:09.251Z,2.35
2019-05-11T21:32:41.451Z,2.58
2019-05-11T21:35:13.724Z,3.12
2019-05-11T21:37:48.588Z,3.37
2019-05-11T21:40:20.004Z,3.75
2019-05-11T21:42:52.482Z,9.25
2019-05-11T21:45:24.757Z,9.10
2019-05-11T21:47:57.958Z,5.37
2019-05-11T21:50:30.323Z,5.15
2019-05-11T21:53:02.598Z,7.72
2019-05-11T21:55:34.871Z,9.25
2019-05-11T21:58:09.019Z,3.83
2019-05-11T22:00:41.357Z,8.23
2019-05-11T22:03:13.620Z,12.23
2019-05-11T22:05:48.379Z,8.58
2019-05-11T22:08:19.817Z,5.92
2019-05-11T22:10:52.278Z,5.17
2019-05-11T22:13:25.180Z,6.65
2019-05-11T22:15:58.082Z,7.35
2019-05-11T22:18:31.508Z,5.78
2019-05-11T22:21:03.721Z,7.00
2019-05-11T22:23:36.010Z,4.17
2019-05-11T22:26:08.282Z,5.90
2019-05-11T22:28:40.860Z,6.90
2019-05-11T22:31:13.342Z,5.78
2019-05-11T22:33:47.888Z,5.85
2019-05-11T22:36:19.418Z,3.27
2019-05-11T22:38:51.672Z,5.78
2019-05-11T22:41:23.961Z,3.77
2019-05-11T22:43:56.441Z,4.95
2019-05-11T22:46:28.821Z,8.85
2019-05-11T22:49:01.191Z,7.47
2019-05-11T22:51:33.460Z,3.80
2019-05-11T22:54:10.764Z,3.40
2019-05-11T22:56:39.544Z,2.87
2019-05-11T22:59:11.902Z,6.25
2019-05-11T23:01:44.297Z,5.37
2019-05-11T23:04:19.675Z,3.80
2019-05-11T23:06:50.377Z,6.33
2019-05-11T23:09:22.853Z,3.72
2019-05-11T23:11:55.331Z,4.80
2019-05-11T23:14:28.219Z,3.75
2019-05-11T23:17:00.487Z,3.80
2019-05-11T23:19:32.966Z,5.53
2019-05-11T23:22:06.170Z,6.08
2019-05-11T23:24:39.130Z,3.20
2019-05-11T23:27:11.319Z,3.87
2019-05-11T23:29:43.800Z,5.22
2019-05-11T23:32:17.973Z,5.47
2019-05-11T23:34:50.591Z,5.40
2019-05-11T23:37:23.058Z,7.05
2019-05-11T23:39:55.444Z,19.90
2019-05-11T23:42:28.855Z,11.85
2019-05-11T23:45:01.833Z,24.87
2019-05-11T23:47:34.528Z,18.48
2019-05-11T23:50:08.209Z,6.62
2019-05-11T23:52:40.478Z,8.13
2019-05-11T23:55:12.766Z,10.38
2019-05-11T23:57:48.559Z,6.55
